Terminal Aerodrome Forecast
Issued by NWS Raleigh/Durham, NC

Home | Current Version | Previous Version | Text Only | Print | Product List | Glossary On
Versions: 1 2 3 4 5 6 7 8 9 10 11 12 13
000
FTUS42 KRAH 212324 AAA
TAFFAY
TAF AMD
KFAY 212324Z 2123/2224 VRB02KT P6SM BKN250
     FM220900 00000KT 4SM BR SCT250
     FM221700 VRB04KT P6SM SCT040 SCT250=

USA.gov is the U.S. government's official web portal to all federal, state and local government web resources and services.